createdAt,value
2023-06-17T00:01:35.423Z,19.16
2023-06-17T00:04:04.001Z,19.14
2023-06-17T00:06:30.893Z,19.09
2023-06-17T00:08:58.623Z,19.05
2023-06-17T00:11:25.455Z,19.05
2023-06-17T00:13:53.313Z,19.02
2023-06-17T00:16:22.102Z,18.99
2023-06-17T00:18:53.036Z,18.96
2023-06-17T00:21:20.549Z,18.93
2023-06-17T00:23:47.387Z,18.91
2023-06-17T00:26:14.233Z,18.89
2023-06-17T00:28:41.013Z,18.87
2023-06-17T00:31:07.752Z,18.86
2023-06-17T00:33:34.528Z,18.84
2023-06-17T00:36:01.348Z,18.79
2023-06-17T00:38:28.151Z,18.78
2023-06-17T00:40:55.098Z,18.75
2023-06-17T00:43:21.874Z,18.72
2023-06-17T00:45:48.717Z,18.68
2023-06-17T00:48:15.952Z,18.65
2023-06-17T00:50:45.332Z,18.60
2023-06-17T00:53:12.406Z,18.54
2023-06-17T00:55:40.670Z,18.52
2023-06-17T00:58:07.596Z,18.49
2023-06-17T01:00:34.435Z,18.46
2023-06-17T01:03:01.533Z,18.41
2023-06-17T01:05:28.788Z,18.39
2023-06-17T01:08:14.128Z,18.34
2023-06-17T01:10:44.006Z,18.33
2023-06-17T01:13:13.324Z,18.26
2023-06-17T01:15:40.934Z,18.25
2023-06-17T01:18:08.972Z,18.22
2023-06-17T01:20:37.365Z,18.17
2023-06-17T01:23:06.678Z,18.17
2023-06-17T01:25:35.824Z,18.10
2023-06-17T01:28:20.882Z,18.09
2023-06-17T01:30:49.346Z,18.05
2023-06-17T01:33:16.800Z,18.03
2023-06-17T01:35:56.820Z,18.03
2023-06-17T01:38:33.634Z,18.01
2023-06-17T01:41:09.794Z,18.00
2023-06-17T01:43:37.802Z,17.98
2023-06-17T01:46:07.021Z,17.94
2023-06-17T01:48:34.037Z,17.90
2023-06-17T01:51:00.888Z,17.85
2023-06-17T01:53:27.901Z,17.81
2023-06-17T01:55:54.740Z,17.78
2023-06-17T01:58:21.593Z,17.74
2023-06-17T02:00:48.572Z,17.72
2023-06-17T02:03:17.253Z,17.72
2023-06-17T02:05:44.592Z,17.68
2023-06-17T02:08:12.818Z,17.65
2023-06-17T02:10:39.636Z,17.61
2023-06-17T02:13:06.482Z,17.59
2023-06-17T02:15:33.355Z,17.57
2023-06-17T02:18:00.417Z,17.53
2023-06-17T02:20:27.987Z,17.50
2023-06-17T02:22:54.793Z,17.48
2023-06-17T02:25:21.593Z,17.44
2023-06-17T02:27:49.711Z,17.44
2023-06-17T02:30:16.570Z,17.44
2023-06-17T02:32:43.415Z,17.39
2023-06-17T02:35:11.632Z,17.36
2023-06-17T02:37:39.072Z,17.31
2023-06-17T02:40:10.367Z,17.30
2023-06-17T02:42:37.835Z,17.30
2023-06-17T02:45:05.751Z,17.24
2023-06-17T02:47:32.647Z,17.22
2023-06-17T02:49:59.783Z,17.20
2023-06-17T02:52:26.608Z,17.17
2023-06-17T02:54:53.443Z,17.13
2023-06-17T02:57:20.301Z,17.10
2023-06-17T02:59:47.645Z,17.11
2023-06-17T03:02:14.530Z,17.07
2023-06-17T03:04:42.196Z,17.03
2023-06-17T03:07:08.962Z,17.01
2023-06-17T03:09:35.769Z,17.01
2023-06-17T03:12:04.266Z,16.95
2023-06-17T03:14:31.361Z,16.95
2023-06-17T03:17:02.336Z,16.92
2023-06-17T03:19:29.390Z,16.88
2023-06-17T03:21:57.109Z,16.84
2023-06-17T03:24:24.549Z,16.84
2023-06-17T03:26:52.683Z,16.85
2023-06-17T03:29:19.564Z,16.86
2023-06-17T03:31:46.503Z,16.86
2023-06-17T03:34:13.288Z,16.87
2023-06-17T03:36:41.150Z,16.84
2023-06-17T03:39:08.037Z,16.85
2023-06-17T03:41:34.770Z,16.91
2023-06-17T03:44:01.789Z,16.88
2023-06-17T03:46:28.590Z,16.92
2023-06-17T03:48:55.425Z,16.94
2023-06-17T03:51:22.296Z,16.96
2023-06-17T03:53:49.060Z,17.00
2023-06-17T03:56:15.921Z,16.99
2023-06-17T03:58:42.840Z,17.04
2023-06-17T04:01:13.894Z,17.09
2023-06-17T04:03:41.571Z,17.13
2023-06-17T04:06:09.393Z,17.16
2023-06-17T04:08:38.488Z,17.21
2023-06-17T04:11:06.178Z,17.25
2023-06-17T04:13:32.990Z,17.30
2023-06-17T04:15:59.801Z,17.33
2023-06-17T04:18:28.449Z,17.39
2023-06-17T04:20:57.627Z,17.42
2023-06-17T04:23:25.664Z,17.48
2023-06-17T04:25:52.685Z,17.53
2023-06-17T04:28:20.161Z,17.56
2023-06-17T04:30:47.386Z,17.60
2023-06-17T04:33:15.734Z,17.64
2023-06-17T04:35:43.657Z,17.68
2023-06-17T04:38:11.805Z,17.74
2023-06-17T04:40:39.043Z,17.78
2023-06-17T04:43:05.894Z,17.82
2023-06-17T04:45:33.175Z,17.89
2023-06-17T04:48:00.075Z,17.94
2023-06-17T04:50:26.951Z,17.98
2023-06-17T04:52:53.768Z,18.04
2023-06-17T04:55:22.455Z,18.08
2023-06-17T04:57:49.313Z,18.13
2023-06-17T05:00:19.955Z,18.19
2023-06-17T05:02:48.359Z,18.24
2023-06-17T05:05:15.167Z,18.29
2023-06-17T05:07:41.980Z,18.32
2023-06-17T05:10:09.169Z,18.38
2023-06-17T05:12:36.576Z,18.43
2023-06-17T05:15:03.591Z,18.47
2023-06-17T05:17:30.409Z,18.52
2023-06-17T05:19:57.424Z,18.56
2023-06-17T05:22:24.244Z,18.62
2023-06-17T05:24:51.330Z,18.68
2023-06-17T05:27:18.289Z,18.74
2023-06-17T05:29:45.224Z,18.80
2023-06-17T05:32:12.043Z,18.85
2023-06-17T05:34:38.844Z,18.88
2023-06-17T05:37:05.794Z,18.91
2023-06-17T05:39:32.614Z,18.93
2023-06-17T05:41:59.436Z,18.95
2023-06-17T05:44:26.250Z,18.95
2023-06-17T05:46:53.025Z,18.96
2023-06-17T05:49:19.789Z,18.99
2023-06-17T05:51:46.532Z,19.04
2023-06-17T05:54:13.376Z,19.08
2023-06-17T05:56:40.171Z,19.14
2023-06-17T05:59:07.265Z,19.20
2023-06-17T06:01:34.182Z,19.27
2023-06-17T06:04:01.177Z,19.36
2023-06-17T06:06:27.982Z,19.44
2023-06-17T06:08:54.848Z,19.51
2023-06-17T06:11:21.840Z,19.58
2023-06-17T06:13:48.610Z,19.66
2023-06-17T06:16:15.478Z,19.74
2023-06-17T06:18:42.271Z,19.82
2023-06-17T06:21:09.037Z,19.90
2023-06-17T06:23:37.118Z,20.00
2023-06-17T06:26:04.156Z,20.05
2023-06-17T06:28:31.042Z,20.12
2023-06-17T06:30:57.923Z,20.20
2023-06-17T06:33:24.768Z,20.27
2023-06-17T06:35:51.585Z,20.32
2023-06-17T06:38:18.394Z,20.40
2023-06-17T06:40:45.182Z,20.47
2023-06-17T06:43:11.946Z,20.54
2023-06-17T06:45:38.879Z,20.60
2023-06-17T06:48:06.053Z,20.64
2023-06-17T06:50:34.395Z,20.70
2023-06-17T06:53:01.353Z,20.79
2023-06-17T06:55:29.725Z,20.88
2023-06-17T06:57:56.671Z,20.96
2023-06-17T07:00:23.781Z,21.02
2023-06-17T07:02:50.792Z,21.08
2023-06-17T07:05:17.872Z,21.11
2023-06-17T07:07:45.623Z,21.12
2023-06-17T07:10:12.517Z,21.13
2023-06-17T07:12:39.360Z,21.13
2023-06-17T07:15:06.873Z,21.17
2023-06-17T07:17:33.915Z,21.19
2023-06-17T07:20:00.888Z,21.21
2023-06-17T07:22:27.682Z,21.23
2023-06-17T07:24:54.464Z,21.22
2023-06-17T07:27:21.272Z,21.22
2023-06-17T07:29:48.086Z,21.24
2023-06-17T07:32:14.896Z,21.29
2023-06-17T07:34:41.709Z,21.33
2023-06-17T07:37:08.508Z,21.38
2023-06-17T07:39:35.257Z,21.45
2023-06-17T07:42:02.302Z,21.53
2023-06-17T07:44:29.086Z,21.60
2023-06-17T07:46:56.652Z,21.67
2023-06-17T07:49:23.567Z,21.72
2023-06-17T07:51:50.659Z,21.82
2023-06-17T07:54:17.953Z,21.89
2023-06-17T07:56:44.790Z,21.98
2023-06-17T07:59:11.528Z,22.07
2023-06-17T08:01:38.448Z,22.18
2023-06-17T08:04:05.477Z,22.26
2023-06-17T08:06:32.339Z,22.34
2023-06-17T08:08:59.592Z,22.41
2023-06-17T08:11:26.382Z,22.46
2023-06-17T08:13:53.418Z,22.48
2023-06-17T08:16:20.244Z,22.53
2023-06-17T08:18:47.108Z,22.62
2023-06-17T08:21:13.982Z,22.68
2023-06-17T08:23:41.690Z,22.75
2023-06-17T08:26:08.636Z,22.81
2023-06-17T08:28:35.601Z,22.89
2023-06-17T08:31:03.236Z,22.99
2023-06-17T08:33:30.878Z,23.08
2023-06-17T08:35:57.718Z,23.16
2023-06-17T08:38:24.557Z,23.29
2023-06-17T08:40:51.577Z,23.37
2023-06-17T08:43:21.327Z,23.42
2023-06-17T08:45:49.720Z,23.48
2023-06-17T08:48:17.321Z,23.56
2023-06-17T08:50:46.321Z,23.64
2023-06-17T08:53:16.170Z,23.70
2023-06-17T08:55:43.891Z,23.75
2023-06-17T08:58:11.595Z,23.78
2023-06-17T09:00:38.726Z,23.80
2023-06-17T09:03:09.392Z,23.81
2023-06-17T09:05:36.824Z,23.81
2023-06-17T09:08:04.207Z,23.79
2023-06-17T09:10:42.608Z,23.78
2023-06-17T09:13:09.835Z,23.76
2023-06-17T09:15:41.669Z,23.74
2023-06-17T09:18:09.258Z,23.71
2023-06-17T09:20:36.267Z,23.69
2023-06-17T09:23:03.366Z,23.68
2023-06-17T09:25:35.083Z,23.67
2023-06-17T09:28:16.247Z,23.68
2023-06-17T09:30:45.032Z,23.69
2023-06-17T09:33:20.171Z,23.73
2023-06-17T09:35:48.433Z,23.81
2023-06-17T09:38:20.967Z,23.90
2023-06-17T09:40:49.917Z,24.01
2023-06-17T09:43:27.479Z,24.10
2023-06-17T09:45:58.262Z,24.17
2023-06-17T09:48:26.192Z,24.25
2023-06-17T09:50:57.170Z,24.31
2023-06-17T09:53:27.316Z,24.39
2023-06-17T09:55:59.814Z,24.49
2023-06-17T09:58:32.222Z,24.61
2023-06-17T10:01:07.762Z,24.71
2023-06-17T10:03:36.376Z,24.77
2023-06-17T10:06:13.090Z,24.85
2023-06-17T10:08:52.059Z,24.96
2023-06-17T10:11:20.702Z,25.05
2023-06-17T10:14:11.506Z,25.14
2023-06-17T10:16:45.061Z,25.23
2023-06-17T10:19:14.729Z,25.27
2023-06-17T10:21:45.434Z,25.30
2023-06-17T10:24:12.943Z,25.34
2023-06-17T10:26:40.241Z,25.37
2023-06-17T10:29:08.415Z,25.39
2023-06-17T10:31:43.861Z,25.38
2023-06-17T10:34:16.171Z,25.35
2023-06-17T10:36:43.134Z,25.33
2023-06-17T10:39:11.885Z,25.31
2023-06-17T10:41:41.462Z,25.26
2023-06-17T10:44:36.504Z,25.24
2023-06-17T10:47:15.477Z,25.21
2023-06-17T10:49:47.846Z,25.16
2023-06-17T10:52:15.762Z,25.15
2023-06-17T10:54:50.506Z,25.19
2023-06-17T10:57:17.380Z,25.25
2023-06-17T10:59:44.152Z,25.32
2023-06-17T11:02:11.232Z,25.40
2023-06-17T11:04:42.309Z,25.53
2023-06-17T11:07:10.231Z,25.66
2023-06-17T11:09:37.555Z,25.72
2023-06-17T11:12:05.354Z,25.77
2023-06-17T11:14:33.906Z,25.79
2023-06-17T11:17:00.959Z,25.82
2023-06-17T11:19:27.912Z,25.87
2023-06-17T11:21:58.748Z,25.96
2023-06-17T11:24:26.862Z,26.05
2023-06-17T11:26:55.429Z,26.15
2023-06-17T11:29:22.330Z,26.24
2023-06-17T11:31:49.134Z,26.35
2023-06-17T11:34:16.130Z,26.40
2023-06-17T11:36:42.980Z,26.41
2023-06-17T11:39:13.148Z,26.42
2023-06-17T11:41:40.429Z,26.40
2023-06-17T11:44:07.954Z,26.40
2023-06-17T11:46:38.582Z,26.43
2023-06-17T11:49:08.733Z,26.48
2023-06-17T11:51:37.372Z,26.54
2023-06-17T11:54:07.474Z,26.59
2023-06-17T11:56:34.370Z,26.68
2023-06-17T11:59:02.568Z,26.77
2023-06-17T12:01:29.481Z,26.88
2023-06-17T12:03:57.751Z,26.95
2023-06-17T12:06:25.317Z,27.00
2023-06-17T12:09:04.116Z,27.03
2023-06-17T12:11:32.989Z,27.06
2023-06-17T12:14:00.295Z,27.13
2023-06-17T12:16:32.296Z,27.18
2023-06-17T12:19:00.708Z,27.28
2023-06-17T12:21:27.707Z,27.38
2023-06-17T12:23:57.972Z,27.45
2023-06-17T12:26:25.326Z,27.52
2023-06-17T12:28:55.497Z,27.54
2023-06-17T12:31:23.367Z,27.53
2023-06-17T12:33:50.611Z,27.52
2023-06-17T12:36:18.113Z,27.48
2023-06-17T12:38:45.944Z,27.42
2023-06-17T12:41:13.033Z,27.38
2023-06-17T12:43:40.434Z,27.35
2023-06-17T12:46:08.382Z,27.34
2023-06-17T12:48:35.251Z,27.36
2023-06-17T12:51:02.913Z,27.41
2023-06-17T12:53:29.709Z,27.49
2023-06-17T12:55:56.878Z,27.57
2023-06-17T12:58:25.420Z,27.64
2023-06-17T13:00:53.294Z,27.65
2023-06-17T13:03:20.206Z,27.66
2023-06-17T13:05:51.537Z,27.65
2023-06-17T13:08:18.547Z,27.67
2023-06-17T13:10:45.358Z,27.68
2023-06-17T13:13:12.239Z,27.68
2023-06-17T13:15:39.903Z,27.68
2023-06-17T13:18:08.432Z,27.66
2023-06-17T13:20:35.486Z,27.62
2023-06-17T13:23:02.480Z,27.59
2023-06-17T13:25:29.246Z,27.55
2023-06-17T13:27:56.082Z,27.52
2023-06-17T13:30:23.202Z,27.53
2023-06-17T13:32:50.383Z,27.60
2023-06-17T13:35:17.533Z,27.67
2023-06-17T13:37:44.433Z,27.74
2023-06-17T13:40:11.799Z,27.83
2023-06-17T13:42:38.817Z,27.94
2023-06-17T13:45:06.277Z,28.03
2023-06-17T13:47:34.253Z,28.13
2023-06-17T13:50:01.444Z,28.20
2023-06-17T13:52:28.353Z,28.26
2023-06-17T13:54:55.194Z,28.34
2023-06-17T13:57:23.181Z,28.40
2023-06-17T13:59:50.784Z,28.42
2023-06-17T14:02:17.768Z,28.43
2023-06-17T14:04:45.034Z,28.42
2023-06-17T14:07:11.866Z,28.35
2023-06-17T14:09:38.995Z,28.27
2023-06-17T14:12:06.399Z,28.22
2023-06-17T14:14:33.257Z,28.15
2023-06-17T14:17:01.103Z,28.11
2023-06-17T14:19:29.257Z,28.15
2023-06-17T14:22:00.544Z,28.18
2023-06-17T14:24:29.261Z,28.24
2023-06-17T14:27:27.223Z,28.25
2023-06-17T14:29:54.033Z,28.28
2023-06-17T14:32:20.904Z,28.33
2023-06-17T14:34:48.002Z,28.37
2023-06-17T14:37:14.871Z,28.45
2023-06-17T14:39:41.657Z,28.51
2023-06-17T14:42:08.721Z,28.55
2023-06-17T14:44:35.576Z,28.63
2023-06-17T14:47:02.408Z,28.68
2023-06-17T14:49:29.303Z,28.72
2023-06-17T14:51:56.297Z,28.73
2023-06-17T14:54:23.648Z,28.77
2023-06-17T14:56:50.644Z,28.79
2023-06-17T14:59:17.626Z,28.82
2023-06-17T15:01:44.542Z,28.85
2023-06-17T15:04:13.456Z,28.87
2023-06-17T15:06:41.520Z,28.89
2023-06-17T15:09:26.083Z,28.91
2023-06-17T15:12:04.245Z,28.95
2023-06-17T15:14:34.799Z,28.99
2023-06-17T15:17:02.148Z,29.02
2023-06-17T15:19:28.975Z,29.04
2023-06-17T15:21:55.963Z,29.05
2023-06-17T15:24:22.862Z,29.04
2023-06-17T15:26:49.678Z,29.02
2023-06-17T15:29:16.906Z,29.02
2023-06-17T15:31:43.939Z,29.02
2023-06-17T15:34:11.490Z,29.01
2023-06-17T15:36:38.394Z,29.00
2023-06-17T15:39:19.147Z,28.98
2023-06-17T15:41:47.766Z,28.98
2023-06-17T15:44:15.921Z,28.97
2023-06-17T15:46:43.637Z,28.97
2023-06-17T15:49:11.028Z,28.95
2023-06-17T15:51:37.952Z,28.94
2023-06-17T15:54:05.338Z,28.93
2023-06-17T15:56:32.529Z,28.93
2023-06-17T15:59:00.934Z,28.92
2023-06-17T16:01:28.345Z,28.91
2023-06-17T16:03:57.602Z,28.91
2023-06-17T16:06:24.481Z,28.91
2023-06-17T16:08:52.476Z,28.92
2023-06-17T16:11:19.773Z,28.94
2023-06-17T16:13:46.628Z,28.93
2023-06-17T16:16:13.483Z,28.95
2023-06-17T16:18:40.374Z,28.95
2023-06-17T16:21:07.468Z,28.95
2023-06-17T16:23:34.295Z,28.93
2023-06-17T16:26:02.062Z,28.92
2023-06-17T16:28:28.920Z,28.91
2023-06-17T16:30:55.866Z,28.91
2023-06-17T16:33:22.706Z,28.91
2023-06-17T16:35:49.639Z,28.91
2023-06-17T16:38:16.424Z,28.91
2023-06-17T16:40:43.244Z,28.89
2023-06-17T16:43:09.997Z,28.89
2023-06-17T16:45:36.863Z,28.89
2023-06-17T16:48:03.859Z,28.90
2023-06-17T16:50:30.933Z,28.90
2023-06-17T16:52:57.734Z,28.90
2023-06-17T16:55:24.533Z,28.89
2023-06-17T16:57:51.507Z,28.87
2023-06-17T17:00:19.575Z,28.84
2023-06-17T17:02:46.669Z,28.78
2023-06-17T17:05:13.447Z,28.73
2023-06-17T17:07:40.275Z,28.65
2023-06-17T17:10:07.343Z,28.57
2023-06-17T17:12:34.158Z,28.49
2023-06-17T17:15:01.094Z,28.39
2023-06-17T17:17:28.029Z,28.30
2023-06-17T17:19:55.669Z,28.20
2023-06-17T17:22:22.516Z,28.10
2023-06-17T17:24:49.354Z,28.01
2023-06-17T17:27:16.349Z,27.92
2023-06-17T17:29:43.196Z,27.83
2023-06-17T17:32:10.050Z,27.74
2023-06-17T17:34:36.852Z,27.67
2023-06-17T17:37:03.895Z,27.60
2023-06-17T17:39:30.692Z,27.52
2023-06-17T17:41:57.514Z,27.43
2023-06-17T17:44:24.352Z,27.36
2023-06-17T17:46:51.450Z,27.29
2023-06-17T17:49:18.256Z,27.21
2023-06-17T17:51:45.074Z,27.16
2023-06-17T17:54:11.842Z,27.09
2023-06-17T17:56:38.631Z,27.03
2023-06-17T17:59:05.514Z,26.97
2023-06-17T18:01:32.298Z,26.92
2023-06-17T18:03:59.534Z,26.85
2023-06-17T18:06:26.930Z,26.79
2023-06-17T18:08:53.722Z,26.70
2023-06-17T18:11:20.524Z,26.62
2023-06-17T18:13:47.296Z,26.52
2023-06-17T18:16:14.263Z,26.48
2023-06-17T18:18:41.104Z,26.40
2023-06-17T18:21:07.901Z,26.34
2023-06-17T18:23:34.666Z,26.27
2023-06-17T18:26:01.523Z,26.23
2023-06-17T18:28:28.319Z,26.18
2023-06-17T18:30:55.167Z,26.09
2023-06-17T18:33:21.962Z,25.98
2023-06-17T18:35:48.855Z,25.90
2023-06-17T18:38:15.754Z,25.78
2023-06-17T18:40:42.645Z,25.73
2023-06-17T18:43:09.449Z,25.64
2023-06-17T18:45:36.312Z,25.59
2023-06-17T18:48:03.965Z,25.52
2023-06-17T18:50:31.209Z,25.42
2023-06-17T18:52:58.098Z,25.34
2023-06-17T18:55:24.861Z,25.30
2023-06-17T18:57:54.078Z,25.24
2023-06-17T19:00:21.351Z,25.22
2023-06-17T19:02:48.425Z,25.17
2023-06-17T19:05:15.263Z,25.14
2023-06-17T19:07:45.231Z,25.07
2023-06-17T19:10:12.446Z,25.00
2023-06-17T19:12:40.374Z,24.95
2023-06-17T19:15:10.130Z,24.84
2023-06-17T19:17:40.323Z,24.78
2023-06-17T19:20:08.681Z,24.73
2023-06-17T19:22:37.602Z,24.63
2023-06-17T19:25:06.145Z,24.57
2023-06-17T19:27:33.837Z,24.49
2023-06-17T19:30:02.568Z,24.40
2023-06-17T19:32:29.883Z,24.37
2023-06-17T19:34:59.041Z,24.33
2023-06-17T19:37:30.222Z,24.27
2023-06-17T19:39:57.066Z,24.16
2023-06-17T19:42:23.930Z,24.08
2023-06-17T19:44:57.277Z,24.00
2023-06-17T19:47:25.968Z,23.93
2023-06-17T19:49:53.785Z,23.83
2023-06-17T19:52:21.220Z,23.77
2023-06-17T19:54:48.623Z,23.71
2023-06-17T19:57:15.378Z,23.65
2023-06-17T19:59:42.529Z,23.60
2023-06-17T20:02:11.058Z,23.55
2023-06-17T20:04:37.848Z,23.48
2023-06-17T20:07:04.814Z,23.42
2023-06-17T20:09:31.695Z,23.33
2023-06-17T20:11:58.460Z,23.23
2023-06-17T20:14:25.245Z,23.12
2023-06-17T20:16:52.970Z,23.08
2023-06-17T20:19:19.803Z,23.05
2023-06-17T20:21:46.810Z,23.00
2023-06-17T20:24:13.710Z,22.94
2023-06-17T20:26:40.522Z,22.85
2023-06-17T20:29:07.341Z,22.81
2023-06-17T20:31:34.159Z,22.74
2023-06-17T20:34:01.004Z,22.65
2023-06-17T20:36:27.805Z,22.63
2023-06-17T20:38:54.584Z,22.59
2023-06-17T20:41:21.383Z,22.51
2023-06-17T20:43:48.415Z,22.47
2023-06-17T20:46:15.282Z,22.43
2023-06-17T20:48:42.111Z,22.35
2023-06-17T20:51:11.215Z,22.32
2023-06-17T20:53:38.324Z,22.25
2023-06-17T20:56:05.101Z,22.19
2023-06-17T20:58:31.941Z,22.14
2023-06-17T21:00:58.945Z,22.14
2023-06-17T21:03:25.887Z,22.06
2023-06-17T21:05:52.696Z,22.04
2023-06-17T21:08:19.490Z,21.98
2023-06-17T21:10:46.357Z,21.95
2023-06-17T21:13:13.135Z,21.93
2023-06-17T21:15:39.939Z,21.88
2023-06-17T21:18:07.080Z,21.85
2023-06-17T21:20:33.947Z,21.80
2023-06-17T21:23:00.983Z,21.78
2023-06-17T21:25:27.817Z,21.76
2023-06-17T21:27:54.569Z,21.71
2023-06-17T21:30:21.679Z,21.71
2023-06-17T21:32:48.878Z,21.68
2023-06-17T21:35:16.724Z,21.63
2023-06-17T21:37:43.548Z,21.55
2023-06-17T21:40:11.104Z,21.51
2023-06-17T21:42:38.056Z,21.44
2023-06-17T21:45:05.457Z,21.39
2023-06-17T21:47:32.246Z,21.34
2023-06-17T21:49:59.605Z,21.28
2023-06-17T21:52:26.393Z,21.23
2023-06-17T21:54:53.210Z,21.19
2023-06-17T21:57:20.996Z,21.14
2023-06-17T21:59:47.815Z,21.07
2023-06-17T22:02:14.877Z,21.03
2023-06-17T22:04:41.750Z,21.00
2023-06-17T22:07:08.568Z,20.93
2023-06-17T22:09:35.413Z,20.87
2023-06-17T22:12:02.238Z,20.79
2023-06-17T22:14:29.068Z,20.75
2023-06-17T22:16:56.171Z,20.73
2023-06-17T22:19:22.914Z,20.69
2023-06-17T22:21:49.808Z,20.62
2023-06-17T22:24:16.839Z,20.56
2023-06-17T22:26:43.824Z,20.51
2023-06-17T22:29:10.712Z,20.47
2023-06-17T22:31:37.497Z,20.43
2023-06-17T22:34:04.322Z,20.38
2023-06-17T22:36:31.169Z,20.34
2023-06-17T22:38:58.046Z,20.29
2023-06-17T22:41:24.867Z,20.26
2023-06-17T22:43:51.786Z,20.22
2023-06-17T22:46:18.805Z,20.17
2023-06-17T22:48:45.692Z,20.12
2023-06-17T22:51:12.479Z,20.10
2023-06-17T22:53:39.600Z,20.05
2023-06-17T22:56:06.582Z,20.01
2023-06-17T22:58:33.392Z,19.95
2023-06-17T23:01:00.225Z,19.85
2023-06-17T23:03:27.025Z,19.80
2023-06-17T23:05:53.818Z,19.77
2023-06-17T23:08:20.663Z,19.73
2023-06-17T23:10:47.664Z,19.68
2023-06-17T23:13:15.496Z,19.63
2023-06-17T23:15:42.364Z,19.58
2023-06-17T23:18:09.228Z,19.56
2023-06-17T23:20:36.111Z,19.49
2023-06-17T23:23:05.029Z,19.47
2023-06-17T23:25:32.448Z,19.41
2023-06-17T23:27:59.866Z,19.36
2023-06-17T23:30:26.624Z,19.30
2023-06-17T23:32:53.524Z,19.24
2023-06-17T23:35:20.679Z,19.18
2023-06-17T23:37:47.498Z,19.16
2023-06-17T23:40:14.369Z,19.14
2023-06-17T23:42:41.648Z,19.08
2023-06-17T23:45:09.226Z,19.06
2023-06-17T23:47:36.298Z,19.03
2023-06-17T23:50:03.280Z,18.99
2023-06-17T23:52:30.099Z,18.93
2023-06-17T23:54:56.856Z,18.91
2023-06-17T23:57:23.759Z,18.87
2023-06-17T23:59:50.657Z,18.81
